sensor_id;sensor_type;location;lat;lon;timestamp;temperature;humidity
33077;DHT22;38790;51.964;5.924;2022-07-21T00:01:46;21.00;99.90
33077;DHT22;38790;51.964;5.924;2022-07-21T00:04:13;20.90;99.90
33077;DHT22;38790;51.964;5.924;2022-07-21T00:06:39;20.80;99.90
33077;DHT22;38790;51.964;5.924;2022-07-21T00:09:05;20.60;99.90
33077;DHT22;38790;51.964;5.924;2022-07-21T00:11:31;20.60;99.90
33077;DHT22;38790;51.964;5.924;2022-07-21T00:13:57;20.80;99.90
33077;DHT22;38790;51.964;5.924;2022-07-21T00:16:24;20.90;99.90
33077;DHT22;38790;51.964;5.924;2022-07-21T00:18:50;21.00;99.90
33077;DHT22;38790;51.964;5.924;2022-07-21T00:21:16;21.10;99.90
33077;DHT22;38790;51.964;5.924;2022-07-21T00:23:43;21.10;99.90
33077;DHT22;38790;51.964;5.924;2022-07-21T00:26:09;21.20;99.90
33077;DHT22;38790;51.964;5.924;2022-07-21T00:28:35;21.20;99.90
33077;DHT22;38790;51.964;5.924;2022-07-21T00:31:01;21.30;99.90
33077;DHT22;38790;51.964;5.924;2022-07-21T00:33:27;21.20;99.90
33077;DHT22;38790;51.964;5.924;2022-07-21T00:35:53;21.20;99.90
33077;DHT22;38790;51.964;5.924;2022-07-21T00:38:19;21.30;99.90
33077;DHT22;38790;51.964;5.924;2022-07-21T00:40:46;21.40;99.90
33077;DHT22;38790;51.964;5.924;2022-07-21T00:43:12;21.20;99.90
33077;DHT22;38790;51.964;5.924;2022-07-21T00:45:38;21.10;99.90
33077;DHT22;38790;51.964;5.924;2022-07-21T00:48:04;21.00;99.90
33077;DHT22;38790;51.964;5.924;2022-07-21T00:50:32;20.80;99.90
33077;DHT22;38790;51.964;5.924;2022-07-21T00:52:58;20.80;99.90
33077;DHT22;38790;51.964;5.924;2022-07-21T00:55:25;20.90;99.90
33077;DHT22;38790;51.964;5.924;2022-07-21T00:57:52;20.90;99.90
33077;DHT22;38790;51.964;5.924;2022-07-21T01:00:22;21.00;99.90
33077;DHT22;38790;51.964;5.924;2022-07-21T01:02:48;21.00;99.90
33077;DHT22;38790;51.964;5.924;2022-07-21T01:05:15;21.00;99.90
33077;DHT22;38790;51.964;5.924;2022-07-21T01:07:43;21.10;99.90
33077;DHT22;38790;51.964;5.924;2022-07-21T01:10:12;21.10;99.90
33077;DHT22;38790;51.964;5.924;2022-07-21T01:12:39;21.00;99.90
33077;DHT22;38790;51.964;5.924;2022-07-21T01:15:07;21.00;99.90
33077;DHT22;38790;51.964;5.924;2022-07-21T01:17:34;20.90;99.90
33077;DHT22;38790;51.964;5.924;2022-07-21T01:20:06;20.90;99.90
33077;DHT22;38790;51.964;5.924;2022-07-21T01:22:34;21.00;99.90
33077;DHT22;38790;51.964;5.924;2022-07-21T01:25:00;21.00;99.90
33077;DHT22;38790;51.964;5.924;2022-07-21T01:27:27;21.00;99.90
33077;DHT22;38790;51.964;5.924;2022-07-21T01:29:55;21.00;99.90
33077;DHT22;38790;51.964;5.924;2022-07-21T01:32:21;21.00;99.90
33077;DHT22;38790;51.964;5.924;2022-07-21T01:34:48;21.00;99.90
33077;DHT22;38790;51.964;5.924;2022-07-21T01:37:14;20.90;99.90
33077;DHT22;38790;51.964;5.924;2022-07-21T01:39:41;20.90;99.90
33077;DHT22;38790;51.964;5.924;2022-07-21T01:42:25;20.80;99.90
33077;DHT22;38790;51.964;5.924;2022-07-21T01:44:51;20.80;99.90
33077;DHT22;38790;51.964;5.924;2022-07-21T01:47:18;20.80;99.90
33077;DHT22;38790;51.964;5.924;2022-07-21T01:49:46;20.80;99.90
33077;DHT22;38790;51.964;5.924;2022-07-21T01:52:12;20.70;99.90
33077;DHT22;38790;51.964;5.924;2022-07-21T01:54:38;20.70;99.90
33077;DHT22;38790;51.964;5.924;2022-07-21T01:57:04;20.80;99.90
33077;DHT22;38790;51.964;5.924;2022-07-21T01:59:30;20.90;99.90
33077;DHT22;38790;51.964;5.924;2022-07-21T02:01:56;20.80;99.90
33077;DHT22;38790;51.964;5.924;2022-07-21T02:04:22;20.80;99.90
33077;DHT22;38790;51.964;5.924;2022-07-21T02:06:49;20.70;99.90
33077;DHT22;38790;51.964;5.924;2022-07-21T02:09:15;20.70;99.90
33077;DHT22;38790;51.964;5.924;2022-07-21T02:11:41;20.60;99.90
33077;DHT22;38790;51.964;5.924;2022-07-21T02:14:07;20.60;99.90
33077;DHT22;38790;51.964;5.924;2022-07-21T02:16:33;20.40;99.90
33077;DHT22;38790;51.964;5.924;2022-07-21T02:19:00;20.40;99.90
33077;DHT22;38790;51.964;5.924;2022-07-21T02:21:26;20.40;99.90
33077;DHT22;38790;51.964;5.924;2022-07-21T02:23:52;20.40;99.90
33077;DHT22;38790;51.964;5.924;2022-07-21T02:26:18;20.40;99.90
33077;DHT22;38790;51.964;5.924;2022-07-21T02:28:44;20.40;99.90
33077;DHT22;38790;51.964;5.924;2022-07-21T02:31:10;20.50;99.90
33077;DHT22;38790;51.964;5.924;2022-07-21T02:33:36;20.50;99.90
33077;DHT22;38790;51.964;5.924;2022-07-21T02:36:03;20.50;99.90
33077;DHT22;38790;51.964;5.924;2022-07-21T02:38:29;20.50;99.90
33077;DHT22;38790;51.964;5.924;2022-07-21T02:40:55;20.50;99.90
33077;DHT22;38790;51.964;5.924;2022-07-21T02:43:21;20.50;99.90
33077;DHT22;38790;51.964;5.924;2022-07-21T02:45:47;20.40;99.90
33077;DHT22;38790;51.964;5.924;2022-07-21T02:48:13;20.40;99.90
33077;DHT22;38790;51.964;5.924;2022-07-21T02:50:42;20.20;99.90
33077;DHT22;38790;51.964;5.924;2022-07-21T02:53:12;20.10;99.90
33077;DHT22;38790;51.964;5.924;2022-07-21T02:55:39;20.20;99.90
33077;DHT22;38790;51.964;5.924;2022-07-21T02:58:27;20.30;99.90
33077;DHT22;38790;51.964;5.924;2022-07-21T03:03:23;20.30;99.90
33077;DHT22;38790;51.964;5.924;2022-07-21T03:05:49;20.30;99.90
33077;DHT22;38790;51.964;5.924;2022-07-21T03:08:16;20.40;99.90
33077;DHT22;38790;51.964;5.924;2022-07-21T03:10:43;20.40;99.90
33077;DHT22;38790;51.964;5.924;2022-07-21T03:13:09;20.40;99.90
33077;DHT22;38790;51.964;5.924;2022-07-21T03:15:36;20.40;99.90
33077;DHT22;38790;51.964;5.924;2022-07-21T03:18:03;20.50;99.90
33077;DHT22;38790;51.964;5.924;2022-07-21T03:20:32;20.50;99.90
33077;DHT22;38790;51.964;5.924;2022-07-21T03:22:59;20.40;99.90
33077;DHT22;38790;51.964;5.924;2022-07-21T03:25:25;20.50;99.90
33077;DHT22;38790;51.964;5.924;2022-07-21T03:27:52;20.50;99.90
33077;DHT22;38790;51.964;5.924;2022-07-21T03:30:18;20.40;99.90
33077;DHT22;38790;51.964;5.924;2022-07-21T03:32:45;20.40;99.90
33077;DHT22;38790;51.964;5.924;2022-07-21T03:35:12;20.40;99.90
33077;DHT22;38790;51.964;5.924;2022-07-21T03:40:19;20.40;99.90
33077;DHT22;38790;51.964;5.924;2022-07-21T03:42:50;20.30;99.90
33077;DHT22;38790;51.964;5.924;2022-07-21T03:45:16;20.30;99.90
33077;DHT22;38790;51.964;5.924;2022-07-21T03:47:42;20.30;99.90
33077;DHT22;38790;51.964;5.924;2022-07-21T03:50:09;20.20;99.90
33077;DHT22;38790;51.964;5.924;2022-07-21T03:52:38;20.20;99.90
33077;DHT22;38790;51.964;5.924;2022-07-21T03:55:04;20.10;99.90
33077;DHT22;38790;51.964;5.924;2022-07-21T03:57:55;20.20;99.90
33077;DHT22;38790;51.964;5.924;2022-07-21T04:00:27;20.20;99.90
33077;DHT22;38790;51.964;5.924;2022-07-21T04:02:54;20.20;99.90
33077;DHT22;38790;51.964;5.924;2022-07-21T04:05:20;20.20;99.90
33077;DHT22;38790;51.964;5.924;2022-07-21T04:07:48;20.20;99.90
33077;DHT22;38790;51.964;5.924;2022-07-21T04:10:17;20.20;99.90
33077;DHT22;38790;51.964;5.924;2022-07-21T04:12:44;20.10;99.90
33077;DHT22;38790;51.964;5.924;2022-07-21T04:15:11;20.10;99.90
33077;DHT22;38790;51.964;5.924;2022-07-21T04:17:38;20.10;99.90
33077;DHT22;38790;51.964;5.924;2022-07-21T04:20:06;20.10;99.90
33077;DHT22;38790;51.964;5.924;2022-07-21T04:22:33;20.10;99.90
33077;DHT22;38790;51.964;5.924;2022-07-21T04:24:59;20.10;99.90
33077;DHT22;38790;51.964;5.924;2022-07-21T04:27:28;20.00;99.90
33077;DHT22;38790;51.964;5.924;2022-07-21T04:29:54;20.10;99.90
33077;DHT22;38790;51.964;5.924;2022-07-21T04:32:20;20.10;99.90
33077;DHT22;38790;51.964;5.924;2022-07-21T04:34:46;20.10;99.90
33077;DHT22;38790;51.964;5.924;2022-07-21T04:37:12;20.10;99.90
33077;DHT22;38790;51.964;5.924;2022-07-21T04:39:38;20.20;99.90
33077;DHT22;38790;51.964;5.924;2022-07-21T04:42:05;20.20;99.90
33077;DHT22;38790;51.964;5.924;2022-07-21T04:44:31;20.20;99.90
33077;DHT22;38790;51.964;5.924;2022-07-21T04:46:57;20.20;99.90
33077;DHT22;38790;51.964;5.924;2022-07-21T04:49:24;20.20;99.90
33077;DHT22;38790;51.964;5.924;2022-07-21T04:51:50;20.20;99.90
33077;DHT22;38790;51.964;5.924;2022-07-21T04:54:16;20.20;99.90
33077;DHT22;38790;51.964;5.924;2022-07-21T04:56:43;20.30;99.90
33077;DHT22;38790;51.964;5.924;2022-07-21T04:59:10;20.20;99.90
33077;DHT22;38790;51.964;5.924;2022-07-21T05:01:37;20.20;99.90
33077;DHT22;38790;51.964;5.924;2022-07-21T05:04:04;20.10;99.90
33077;DHT22;38790;51.964;5.924;2022-07-21T05:06:31;20.10;99.90
33077;DHT22;38790;51.964;5.924;2022-07-21T05:08:57;20.00;99.90
33077;DHT22;38790;51.964;5.924;2022-07-21T05:11:24;20.00;99.90
33077;DHT22;38790;51.964;5.924;2022-07-21T05:13:51;20.10;99.90
33077;DHT22;38790;51.964;5.924;2022-07-21T05:16:17;20.10;99.90
33077;DHT22;38790;51.964;5.924;2022-07-21T05:18:43;20.10;99.90
33077;DHT22;38790;51.964;5.924;2022-07-21T05:21:09;20.10;99.90
33077;DHT22;38790;51.964;5.924;2022-07-21T05:23:35;20.10;99.90
33077;DHT22;38790;51.964;5.924;2022-07-21T05:26:02;20.10;99.90
33077;DHT22;38790;51.964;5.924;2022-07-21T05:28:28;20.10;99.90
33077;DHT22;38790;51.964;5.924;2022-07-21T05:30:54;20.20;99.90
33077;DHT22;38790;51.964;5.924;2022-07-21T05:33:20;20.20;99.90
33077;DHT22;38790;51.964;5.924;2022-07-21T05:35:47;20.10;99.90
33077;DHT22;38790;51.964;5.924;2022-07-21T05:38:13;20.10;99.90
33077;DHT22;38790;51.964;5.924;2022-07-21T05:40:39;20.10;99.90
33077;DHT22;38790;51.964;5.924;2022-07-21T05:43:06;20.10;99.90
33077;DHT22;38790;51.964;5.924;2022-07-21T05:45:32;20.10;99.90
33077;DHT22;38790;51.964;5.924;2022-07-21T05:47:58;20.10;99.90
33077;DHT22;38790;51.964;5.924;2022-07-21T05:50:24;20.10;99.90
33077;DHT22;38790;51.964;5.924;2022-07-21T05:52:50;20.10;99.90
33077;DHT22;38790;51.964;5.924;2022-07-21T05:55:16;20.00;99.90
33077;DHT22;38790;51.964;5.924;2022-07-21T05:57:42;20.00;99.90
33077;DHT22;38790;51.964;5.924;2022-07-21T06:00:09;20.00;99.90
33077;DHT22;38790;51.964;5.924;2022-07-21T06:02:35;20.00;99.90
33077;DHT22;38790;51.964;5.924;2022-07-21T06:05:02;19.90;99.90
33077;DHT22;38790;51.964;5.924;2022-07-21T06:07:28;20.00;99.90
33077;DHT22;38790;51.964;5.924;2022-07-21T06:09:54;20.00;99.90
33077;DHT22;38790;51.964;5.924;2022-07-21T06:12:20;20.00;99.90
33077;DHT22;38790;51.964;5.924;2022-07-21T06:14:46;20.00;99.90
33077;DHT22;38790;51.964;5.924;2022-07-21T06:17:12;20.00;99.90
33077;DHT22;38790;51.964;5.924;2022-07-21T06:19:38;20.10;99.90
33077;DHT22;38790;51.964;5.924;2022-07-21T06:22:04;20.10;99.90
33077;DHT22;38790;51.964;5.924;2022-07-21T06:24:30;20.00;99.90
33077;DHT22;38790;51.964;5.924;2022-07-21T06:26:56;20.00;99.90
33077;DHT22;38790;51.964;5.924;2022-07-21T06:29:23;20.10;99.90
33077;DHT22;38790;51.964;5.924;2022-07-21T06:31:50;20.10;99.90
33077;DHT22;38790;51.964;5.924;2022-07-21T06:34:16;20.10;99.90
33077;DHT22;38790;51.964;5.924;2022-07-21T06:36:43;20.10;99.90
33077;DHT22;38790;51.964;5.924;2022-07-21T06:39:09;20.10;99.90
33077;DHT22;38790;51.964;5.924;2022-07-21T06:41:39;20.30;99.90
33077;DHT22;38790;51.964;5.924;2022-07-21T06:44:05;20.50;99.90
33077;DHT22;38790;51.964;5.924;2022-07-21T06:46:33;20.60;99.90
33077;DHT22;38790;51.964;5.924;2022-07-21T06:48:59;20.90;99.90
33077;DHT22;38790;51.964;5.924;2022-07-21T06:51:25;21.10;99.90
33077;DHT22;38790;51.964;5.924;2022-07-21T06:53:51;21.40;99.90
33077;DHT22;38790;51.964;5.924;2022-07-21T06:56:18;21.60;99.90
33077;DHT22;38790;51.964;5.924;2022-07-21T06:58:44;21.70;99.90
33077;DHT22;38790;51.964;5.924;2022-07-21T07:01:10;21.90;99.90
33077;DHT22;38790;51.964;5.924;2022-07-21T07:03:37;22.10;99.90
33077;DHT22;38790;51.964;5.924;2022-07-21T07:06:05;22.20;99.90
33077;DHT22;38790;51.964;5.924;2022-07-21T07:08:32;22.10;99.90
33077;DHT22;38790;51.964;5.924;2022-07-21T07:10:58;22.00;99.90
33077;DHT22;38790;51.964;5.924;2022-07-21T07:13:24;22.10;99.90
33077;DHT22;38790;51.964;5.924;2022-07-21T07:15:50;22.00;99.90
33077;DHT22;38790;51.964;5.924;2022-07-21T07:18:16;21.90;99.90
33077;DHT22;38790;51.964;5.924;2022-07-21T07:20:43;21.80;99.90
33077;DHT22;38790;51.964;5.924;2022-07-21T07:23:09;21.70;99.90
33077;DHT22;38790;51.964;5.924;2022-07-21T07:25:35;21.70;99.90
33077;DHT22;38790;51.964;5.924;2022-07-21T07:28:01;21.50;99.90
33077;DHT22;38790;51.964;5.924;2022-07-21T07:30:27;21.50;99.90
33077;DHT22;38790;51.964;5.924;2022-07-21T07:32:53;21.40;99.90
33077;DHT22;38790;51.964;5.924;2022-07-21T07:35:20;21.30;99.90
33077;DHT22;38790;51.964;5.924;2022-07-21T07:37:47;21.20;99.90
33077;DHT22;38790;51.964;5.924;2022-07-21T07:40:17;21.10;99.90
33077;DHT22;38790;51.964;5.924;2022-07-21T07:42:44;21.10;99.90
33077;DHT22;38790;51.964;5.924;2022-07-21T07:45:11;20.90;99.90
33077;DHT22;38790;51.964;5.924;2022-07-21T07:47:38;20.90;99.90
33077;DHT22;38790;51.964;5.924;2022-07-21T07:50:06;21.00;99.90
33077;DHT22;38790;51.964;5.924;2022-07-21T07:52:35;21.00;99.90
33077;DHT22;38790;51.964;5.924;2022-07-21T07:55:01;21.10;99.90
33077;DHT22;38790;51.964;5.924;2022-07-21T07:57:33;21.10;99.90
33077;DHT22;38790;51.964;5.924;2022-07-21T08:00:00;21.20;99.90
33077;DHT22;38790;51.964;5.924;2022-07-21T08:02:26;21.40;99.90
33077;DHT22;38790;51.964;5.924;2022-07-21T08:04:52;21.50;99.90
33077;DHT22;38790;51.964;5.924;2022-07-21T08:07:18;21.80;99.90
33077;DHT22;38790;51.964;5.924;2022-07-21T08:09:44;22.00;99.90
33077;DHT22;38790;51.964;5.924;2022-07-21T08:12:11;22.00;99.90
33077;DHT22;38790;51.964;5.924;2022-07-21T08:14:37;22.00;99.90
33077;DHT22;38790;51.964;5.924;2022-07-21T08:17:04;21.90;99.90
33077;DHT22;38790;51.964;5.924;2022-07-21T08:19:30;21.80;99.90
33077;DHT22;38790;51.964;5.924;2022-07-21T08:21:56;21.80;99.90
33077;DHT22;38790;51.964;5.924;2022-07-21T08:24:22;21.90;99.90
33077;DHT22;38790;51.964;5.924;2022-07-21T08:26:48;21.90;99.90
33077;DHT22;38790;51.964;5.924;2022-07-21T08:29:15;22.00;99.90
33077;DHT22;38790;51.964;5.924;2022-07-21T08:31:41;22.00;99.90
33077;DHT22;38790;51.964;5.924;2022-07-21T08:34:07;22.00;99.90
33077;DHT22;38790;51.964;5.924;2022-07-21T08:36:33;22.10;99.90
33077;DHT22;38790;51.964;5.924;2022-07-21T08:38:59;22.20;99.90
33077;DHT22;38790;51.964;5.924;2022-07-21T08:41:26;22.40;99.90
33077;DHT22;38790;51.964;5.924;2022-07-21T08:43:52;22.40;99.90
33077;DHT22;38790;51.964;5.924;2022-07-21T08:46:21;22.40;99.90
33077;DHT22;38790;51.964;5.924;2022-07-21T08:48:49;22.20;99.90
33077;DHT22;38790;51.964;5.924;2022-07-21T08:51:16;22.00;99.90
33077;DHT22;38790;51.964;5.924;2022-07-21T08:53:45;21.90;99.90
33077;DHT22;38790;51.964;5.924;2022-07-21T08:56:12;21.80;99.90
33077;DHT22;38790;51.964;5.924;2022-07-21T08:58:38;21.70;99.90
33077;DHT22;38790;51.964;5.924;2022-07-21T09:01:05;21.70;99.90
33077;DHT22;38790;51.964;5.924;2022-07-21T09:03:31;21.50;99.90
33077;DHT22;38790;51.964;5.924;2022-07-21T09:08:31;21.30;99.90
33077;DHT22;38790;51.964;5.924;2022-07-21T09:11:22;21.10;99.90
33077;DHT22;38790;51.964;5.924;2022-07-21T09:14:10;21.00;99.90
33077;DHT22;38790;51.964;5.924;2022-07-21T09:16:38;20.90;99.90
33077;DHT22;38790;51.964;5.924;2022-07-21T09:19:05;20.90;99.90
33077;DHT22;38790;51.964;5.924;2022-07-21T09:21:35;20.80;99.90
33077;DHT22;38790;51.964;5.924;2022-07-21T09:27:10;20.60;99.90
33077;DHT22;38790;51.964;5.924;2022-07-21T09:34:40;20.70;99.90
33077;DHT22;38790;51.964;5.924;2022-07-21T09:37:07;20.80;99.90
33077;DHT22;38790;51.964;5.924;2022-07-21T09:39:51;20.60;99.90
33077;DHT22;38790;51.964;5.924;2022-07-21T09:42:26;20.50;99.90
33077;DHT22;38790;51.964;5.924;2022-07-21T09:44:59;20.50;99.90
33077;DHT22;38790;51.964;5.924;2022-07-21T09:47:29;20.50;99.90
33077;DHT22;38790;51.964;5.924;2022-07-21T09:49:56;20.40;99.90
33077;DHT22;38790;51.964;5.924;2022-07-21T09:52:30;20.30;99.90
33077;DHT22;38790;51.964;5.924;2022-07-21T09:55:02;20.30;99.90
33077;DHT22;38790;51.964;5.924;2022-07-21T09:57:30;20.20;99.90
33077;DHT22;38790;51.964;5.924;2022-07-21T09:59:57;20.10;99.90
33077;DHT22;38790;51.964;5.924;2022-07-21T10:02:26;20.00;99.90
33077;DHT22;38790;51.964;5.924;2022-07-21T10:07:25;20.00;99.90
33077;DHT22;38790;51.964;5.924;2022-07-21T10:09:52;20.10;99.90
33077;DHT22;38790;51.964;5.924;2022-07-21T10:12:18;20.10;99.90
33077;DHT22;38790;51.964;5.924;2022-07-21T10:14:44;20.10;99.90
33077;DHT22;38790;51.964;5.924;2022-07-21T10:17:13;20.20;99.90
33077;DHT22;38790;51.964;5.924;2022-07-21T10:20:02;20.20;99.90
33077;DHT22;38790;51.964;5.924;2022-07-21T10:25:17;20.20;99.90
33077;DHT22;38790;51.964;5.924;2022-07-21T10:30:42;20.10;99.90
33077;DHT22;38790;51.964;5.924;2022-07-21T10:33:10;20.10;99.90
33077;DHT22;38790;51.964;5.924;2022-07-21T10:35:41;20.00;99.90
33077;DHT22;38790;51.964;5.924;2022-07-21T10:40:50;20.10;99.90
33077;DHT22;38790;51.964;5.924;2022-07-21T10:45:56;20.20;99.90
33077;DHT22;38790;51.964;5.924;2022-07-21T10:51:07;20.30;99.90
33077;DHT22;38790;51.964;5.924;2022-07-21T10:53:35;20.30;99.90
33077;DHT22;38790;51.964;5.924;2022-07-21T10:56:01;20.30;99.90
33077;DHT22;38790;51.964;5.924;2022-07-21T11:08:33;20.00;99.90
33077;DHT22;38790;51.964;5.924;2022-07-21T11:11:17;20.00;99.90
33077;DHT22;38790;51.964;5.924;2022-07-21T11:14:04;19.90;99.90
33077;DHT22;38790;51.964;5.924;2022-07-21T11:19:45;19.70;99.90
33077;DHT22;38790;51.964;5.924;2022-07-21T11:22:23;19.80;99.90
33077;DHT22;38790;51.964;5.924;2022-07-21T11:24:57;19.80;99.90
33077;DHT22;38790;51.964;5.924;2022-07-21T11:27:25;19.70;99.90
33077;DHT22;38790;51.964;5.924;2022-07-21T11:29:55;19.60;99.90
33077;DHT22;38790;51.964;5.924;2022-07-21T11:32:21;19.60;99.90
33077;DHT22;38790;51.964;5.924;2022-07-21T11:34:50;19.70;99.90
33077;DHT22;38790;51.964;5.924;2022-07-21T11:37:42;19.80;99.90
33077;DHT22;38790;51.964;5.924;2022-07-21T11:40:10;20.00;99.90
33077;DHT22;38790;51.964;5.924;2022-07-21T11:42:39;20.10;99.90
33077;DHT22;38790;51.964;5.924;2022-07-21T11:45:07;20.20;99.90
33077;DHT22;38790;51.964;5.924;2022-07-21T11:47:34;20.30;99.90
33077;DHT22;38790;51.964;5.924;2022-07-21T11:50:03;20.20;99.90
33077;DHT22;38790;51.964;5.924;2022-07-21T11:52:33;20.10;99.90
33077;DHT22;38790;51.964;5.924;2022-07-21T11:55:01;20.00;99.90
33077;DHT22;38790;51.964;5.924;2022-07-21T11:57:28;20.00;99.90
33077;DHT22;38790;51.964;5.924;2022-07-21T11:59:56;20.00;99.90
33077;DHT22;38790;51.964;5.924;2022-07-21T12:02:25;19.90;99.90
33077;DHT22;38790;51.964;5.924;2022-07-21T12:04:53;19.90;99.90
33077;DHT22;38790;51.964;5.924;2022-07-21T12:07:26;19.80;99.90
33077;DHT22;38790;51.964;5.924;2022-07-21T12:09:55;19.80;99.90
33077;DHT22;38790;51.964;5.924;2022-07-21T12:12:35;19.70;99.90
33077;DHT22;38790;51.964;5.924;2022-07-21T12:20:37;20.00;99.90
33077;DHT22;38790;51.964;5.924;2022-07-21T12:23:31;19.90;99.90
33077;DHT22;38790;51.964;5.924;2022-07-21T12:26:00;20.00;99.90
33077;DHT22;38790;51.964;5.924;2022-07-21T12:28:47;20.00;99.90
33077;DHT22;38790;51.964;5.924;2022-07-21T12:31:16;20.10;99.90
33077;DHT22;38790;51.964;5.924;2022-07-21T12:33:50;20.10;99.90
33077;DHT22;38790;51.964;5.924;2022-07-21T12:36:19;20.20;99.90
33077;DHT22;38790;51.964;5.924;2022-07-21T12:38:48;20.10;99.90
33077;DHT22;38790;51.964;5.924;2022-07-21T12:41:19;20.10;99.90
33077;DHT22;38790;51.964;5.924;2022-07-21T12:43:59;20.20;99.90
33077;DHT22;38790;51.964;5.924;2022-07-21T12:49:15;20.40;99.90
33077;DHT22;38790;51.964;5.924;2022-07-21T12:51:42;20.40;99.90
33077;DHT22;38790;51.964;5.924;2022-07-21T12:54:20;20.30;99.90
33077;DHT22;38790;51.964;5.924;2022-07-21T12:56:46;20.30;99.90
33077;DHT22;38790;51.964;5.924;2022-07-21T12:59:12;20.30;99.90
33077;DHT22;38790;51.964;5.924;2022-07-21T13:01:40;20.20;99.90
33077;DHT22;38790;51.964;5.924;2022-07-21T13:04:06;20.20;99.90
33077;DHT22;38790;51.964;5.924;2022-07-21T13:06:32;20.20;99.90
33077;DHT22;38790;51.964;5.924;2022-07-21T13:08:59;20.20;99.90
33077;DHT22;38790;51.964;5.924;2022-07-21T13:11:25;20.20;99.90
33077;DHT22;38790;51.964;5.924;2022-07-21T13:13:51;20.20;99.90
33077;DHT22;38790;51.964;5.924;2022-07-21T13:16:18;20.00;99.90
33077;DHT22;38790;51.964;5.924;2022-07-21T13:18:45;19.90;99.90
33077;DHT22;38790;51.964;5.924;2022-07-21T13:21:12;19.90;99.90
33077;DHT22;38790;51.964;5.924;2022-07-21T13:23:38;19.90;99.90
33077;DHT22;38790;51.964;5.924;2022-07-21T13:26:04;19.90;99.90
33077;DHT22;38790;51.964;5.924;2022-07-21T13:28:31;19.90;99.90
33077;DHT22;38790;51.964;5.924;2022-07-21T13:30:57;19.90;99.90
33077;DHT22;38790;51.964;5.924;2022-07-21T13:33:23;20.00;99.90
33077;DHT22;38790;51.964;5.924;2022-07-21T13:35:49;20.10;99.90
33077;DHT22;38790;51.964;5.924;2022-07-21T13:38:15;20.10;99.90
33077;DHT22;38790;51.964;5.924;2022-07-21T13:40:42;20.10;99.90
33077;DHT22;38790;51.964;5.924;2022-07-21T13:43:08;20.00;99.90
33077;DHT22;38790;51.964;5.924;2022-07-21T13:45:34;20.00;99.90
33077;DHT22;38790;51.964;5.924;2022-07-21T13:48:00;20.10;99.90
33077;DHT22;38790;51.964;5.924;2022-07-21T13:50:27;20.10;99.90
33077;DHT22;38790;51.964;5.924;2022-07-21T13:52:53;20.10;99.90
33077;DHT22;38790;51.964;5.924;2022-07-21T13:55:20;20.20;99.90
33077;DHT22;38790;51.964;5.924;2022-07-21T13:57:46;20.40;99.90
33077;DHT22;38790;51.964;5.924;2022-07-21T14:00:12;20.30;99.90
33077;DHT22;38790;51.964;5.924;2022-07-21T14:02:38;20.20;99.90
33077;DHT22;38790;51.964;5.924;2022-07-21T14:05:07;20.30;99.90
33077;DHT22;38790;51.964;5.924;2022-07-21T14:07:33;20.40;99.90
33077;DHT22;38790;51.964;5.924;2022-07-21T14:09:59;20.40;99.90
33077;DHT22;38790;51.964;5.924;2022-07-21T14:12:25;20.40;99.90
33077;DHT22;38790;51.964;5.924;2022-07-21T14:14:52;20.30;99.90
33077;DHT22;38790;51.964;5.924;2022-07-21T14:17:18;20.40;99.90
33077;DHT22;38790;51.964;5.924;2022-07-21T14:19:44;20.70;99.90
33077;DHT22;38790;51.964;5.924;2022-07-21T14:22:13;20.90;99.90
33077;DHT22;38790;51.964;5.924;2022-07-21T14:24:39;21.00;99.90
33077;DHT22;38790;51.964;5.924;2022-07-21T14:27:24;21.20;99.90
33077;DHT22;38790;51.964;5.924;2022-07-21T14:29:50;21.20;99.90
33077;DHT22;38790;51.964;5.924;2022-07-21T14:32:18;21.20;99.90
33077;DHT22;38790;51.964;5.924;2022-07-21T14:34:51;20.90;99.90
33077;DHT22;38790;51.964;5.924;2022-07-21T14:37:18;20.60;99.90
33077;DHT22;38790;51.964;5.924;2022-07-21T14:39:46;20.30;99.90
33077;DHT22;38790;51.964;5.924;2022-07-21T14:42:12;20.10;99.90
33077;DHT22;38790;51.964;5.924;2022-07-21T14:44:38;19.90;99.90
33077;DHT22;38790;51.964;5.924;2022-07-21T14:47:06;19.80;99.90
33077;DHT22;38790;51.964;5.924;2022-07-21T14:49:33;19.80;99.90
33077;DHT22;38790;51.964;5.924;2022-07-21T14:52:00;20.00;99.90
33077;DHT22;38790;51.964;5.924;2022-07-21T14:54:26;20.50;99.90
33077;DHT22;38790;51.964;5.924;2022-07-21T14:56:52;20.80;99.90
33077;DHT22;38790;51.964;5.924;2022-07-21T14:59:18;21.00;99.90
33077;DHT22;38790;51.964;5.924;2022-07-21T15:01:44;21.10;99.90
33077;DHT22;38790;51.964;5.924;2022-07-21T15:04:10;20.90;99.90
33077;DHT22;38790;51.964;5.924;2022-07-21T15:06:37;20.80;99.90
33077;DHT22;38790;51.964;5.924;2022-07-21T15:09:03;20.90;99.90
33077;DHT22;38790;51.964;5.924;2022-07-21T15:11:29;20.80;99.90
33077;DHT22;38790;51.964;5.924;2022-07-21T15:13:55;20.60;99.90
33077;DHT22;38790;51.964;5.924;2022-07-21T15:16:21;20.50;99.90
33077;DHT22;38790;51.964;5.924;2022-07-21T15:18:47;20.30;99.90
33077;DHT22;38790;51.964;5.924;2022-07-21T15:21:13;20.20;99.90
33077;DHT22;38790;51.964;5.924;2022-07-21T15:23:39;20.20;99.90
33077;DHT22;38790;51.964;5.924;2022-07-21T15:26:06;20.20;99.90
33077;DHT22;38790;51.964;5.924;2022-07-21T15:28:32;20.20;99.90
33077;DHT22;38790;51.964;5.924;2022-07-21T15:30:58;20.10;99.90
33077;DHT22;38790;51.964;5.924;2022-07-21T15:33:24;20.10;99.90
33077;DHT22;38790;51.964;5.924;2022-07-21T15:35:50;20.20;99.90
33077;DHT22;38790;51.964;5.924;2022-07-21T15:38:23;20.30;99.90
33077;DHT22;38790;51.964;5.924;2022-07-21T15:40:50;20.30;99.90
33077;DHT22;38790;51.964;5.924;2022-07-21T15:43:17;20.40;99.90
33077;DHT22;38790;51.964;5.924;2022-07-21T15:45:44;20.50;99.90
33077;DHT22;38790;51.964;5.924;2022-07-21T15:48:10;20.50;99.90
33077;DHT22;38790;51.964;5.924;2022-07-21T15:50:38;20.50;99.90
33077;DHT22;38790;51.964;5.924;2022-07-21T15:53:05;20.40;99.90
33077;DHT22;38790;51.964;5.924;2022-07-21T15:55:31;20.30;99.90
33077;DHT22;38790;51.964;5.924;2022-07-21T15:57:58;20.30;99.90
33077;DHT22;38790;51.964;5.924;2022-07-21T16:00:24;20.30;99.90
33077;DHT22;38790;51.964;5.924;2022-07-21T16:02:51;20.30;99.90
33077;DHT22;38790;51.964;5.924;2022-07-21T16:05:22;20.20;99.90
33077;DHT22;38790;51.964;5.924;2022-07-21T16:07:50;20.10;99.90
33077;DHT22;38790;51.964;5.924;2022-07-21T16:10:18;20.20;99.90
33077;DHT22;38790;51.964;5.924;2022-07-21T16:12:45;20.30;99.90
33077;DHT22;38790;51.964;5.924;2022-07-21T16:15:12;20.30;99.90
33077;DHT22;38790;51.964;5.924;2022-07-21T16:17:38;20.20;99.90
33077;DHT22;38790;51.964;5.924;2022-07-21T16:20:05;20.20;99.90
33077;DHT22;38790;51.964;5.924;2022-07-21T16:22:33;20.10;99.90
33077;DHT22;38790;51.964;5.924;2022-07-21T16:25:00;20.00;99.90
33077;DHT22;38790;51.964;5.924;2022-07-21T16:27:26;20.00;99.90